sensor_id;sensor_type;location;lat;lon;timestamp;P1;durP1;ratioP1;P2;durP2;ratioP2
21661;SDS011;10992;48.170;8.596;2023-07-31T00:00:04;4.32;;;2.00;;
21661;SDS011;10992;48.170;8.596;2023-07-31T00:02:32;2.83;;;1.80;;
21661;SDS011;10992;48.170;8.596;2023-07-31T00:04:59;2.85;;;1.80;;
21661;SDS011;10992;48.170;8.596;2023-07-31T00:07:25;5.18;;;2.17;;
21661;SDS011;10992;48.170;8.596;2023-07-31T00:09:52;4.43;;;1.98;;
21661;SDS011;10992;48.170;8.596;2023-07-31T00:12:25;4.60;;;2.42;;
21661;SDS011;10992;48.170;8.596;2023-07-31T00:14:53;3.40;;;2.00;;
21661;SDS011;10992;48.170;8.596;2023-07-31T00:17:20;4.10;;;1.90;;
21661;SDS011;10992;48.170;8.596;2023-07-31T00:19:47;5.25;;;2.45;;
21661;SDS011;10992;48.170;8.596;2023-07-31T00:22:16;4.60;;;2.30;;
21661;SDS011;10992;48.170;8.596;2023-07-31T00:24:43;3.88;;;2.10;;
21661;SDS011;10992;48.170;8.596;2023-07-31T00:27:10;4.85;;;2.20;;
21661;SDS011;10992;48.170;8.596;2023-07-31T00:29:37;2.72;;;1.77;;
21661;SDS011;10992;48.170;8.596;2023-07-31T00:32:04;3.60;;;1.85;;
21661;SDS011;10992;48.170;8.596;2023-07-31T00:34:31;4.68;;;1.80;;
21661;SDS011;10992;48.170;8.596;2023-07-31T00:36:58;5.35;;;2.30;;
21661;SDS011;10992;48.170;8.596;2023-07-31T00:39:25;3.88;;;1.85;;
21661;SDS011;10992;48.170;8.596;2023-07-31T00:41:52;4.07;;;2.28;;
21661;SDS011;10992;48.170;8.596;2023-07-31T00:44:19;5.50;;;2.22;;
21661;SDS011;10992;48.170;8.596;2023-07-31T00:46:46;2.90;;;1.70;;
21661;SDS011;10992;48.170;8.596;2023-07-31T00:49:14;3.40;;;1.58;;
21661;SDS011;10992;48.170;8.596;2023-07-31T00:51:42;3.35;;;1.90;;
21661;SDS011;10992;48.170;8.596;2023-07-31T00:54:09;3.22;;;1.58;;
21661;SDS011;10992;48.170;8.596;2023-07-31T00:56:38;2.97;;;1.75;;
21661;SDS011;10992;48.170;8.596;2023-07-31T00:59:07;5.22;;;1.85;;
21661;SDS011;10992;48.170;8.596;2023-07-31T01:01:34;2.15;;;1.60;;
21661;SDS011;10992;48.170;8.596;2023-07-31T01:04:01;4.47;;;1.80;;
21661;SDS011;10992;48.170;8.596;2023-07-31T01:11:53;6.05;;;2.00;;
21661;SDS011;10992;48.170;8.596;2023-07-31T01:14:26;4.53;;;1.95;;
21661;SDS011;10992;48.170;8.596;2023-07-31T01:16:54;3.97;;;1.92;;
21661;SDS011;10992;48.170;8.596;2023-07-31T01:19:22;4.00;;;2.15;;
21661;SDS011;10992;48.170;8.596;2023-07-31T01:22:12;3.30;;;1.83;;
21661;SDS011;10992;48.170;8.596;2023-07-31T01:25:12;3.22;;;1.80;;
21661;SDS011;10992;48.170;8.596;2023-07-31T01:27:51;3.75;;;2.03;;
21661;SDS011;10992;48.170;8.596;2023-07-31T01:30:41;4.47;;;1.80;;
21661;SDS011;10992;48.170;8.596;2023-07-31T01:33:17;3.58;;;1.83;;
21661;SDS011;10992;48.170;8.596;2023-07-31T01:35:45;5.38;;;1.85;;
21661;SDS011;10992;48.170;8.596;2023-07-31T01:38:14;4.43;;;1.85;;
21661;SDS011;10992;48.170;8.596;2023-07-31T01:40:41;3.65;;;2.08;;
21661;SDS011;10992;48.170;8.596;2023-07-31T01:43:09;3.28;;;2.00;;
21661;SDS011;10992;48.170;8.596;2023-07-31T01:45:36;2.67;;;1.80;;
21661;SDS011;10992;48.170;8.596;2023-07-31T01:48:03;3.28;;;1.80;;
21661;SDS011;10992;48.170;8.596;2023-07-31T01:50:30;2.10;;;1.63;;
21661;SDS011;10992;48.170;8.596;2023-07-31T01:52:57;4.13;;;2.00;;
21661;SDS011;10992;48.170;8.596;2023-07-31T01:55:24;3.95;;;1.98;;
21661;SDS011;10992;48.170;8.596;2023-07-31T01:57:51;3.33;;;2.33;;
21661;SDS011;10992;48.170;8.596;2023-07-31T02:00:18;4.03;;;2.10;;
21661;SDS011;10992;48.170;8.596;2023-07-31T02:02:45;4.45;;;2.05;;
21661;SDS011;10992;48.170;8.596;2023-07-31T02:05:12;4.78;;;2.20;;
21661;SDS011;10992;48.170;8.596;2023-07-31T02:07:39;2.83;;;2.10;;
21661;SDS011;10992;48.170;8.596;2023-07-31T02:10:06;5.18;;;2.30;;
21661;SDS011;10992;48.170;8.596;2023-07-31T02:12:34;3.83;;;2.28;;
21661;SDS011;10992;48.170;8.596;2023-07-31T02:15:01;2.85;;;2.03;;
21661;SDS011;10992;48.170;8.596;2023-07-31T02:17:28;4.35;;;2.28;;
21661;SDS011;10992;48.170;8.596;2023-07-31T02:19:55;4.80;;;2.38;;
21661;SDS011;10992;48.170;8.596;2023-07-31T02:22:23;3.65;;;2.10;;
21661;SDS011;10992;48.170;8.596;2023-07-31T02:24:50;3.75;;;2.42;;
21661;SDS011;10992;48.170;8.596;2023-07-31T02:27:17;3.90;;;1.90;;
21661;SDS011;10992;48.170;8.596;2023-07-31T02:29:44;5.03;;;2.45;;
21661;SDS011;10992;48.170;8.596;2023-07-31T02:32:11;3.17;;;2.15;;
21661;SDS011;10992;48.170;8.596;2023-07-31T02:34:38;6.15;;;2.20;;
21661;SDS011;10992;48.170;8.596;2023-07-31T02:37:06;5.38;;;2.20;;
21661;SDS011;10992;48.170;8.596;2023-07-31T02:39:33;4.40;;;2.13;;
21661;SDS011;10992;48.170;8.596;2023-07-31T02:42:00;4.50;;;2.20;;
21661;SDS011;10992;48.170;8.596;2023-07-31T02:44:27;4.72;;;2.08;;
21661;SDS011;10992;48.170;8.596;2023-07-31T02:46:54;6.53;;;2.60;;
21661;SDS011;10992;48.170;8.596;2023-07-31T02:49:20;7.05;;;2.00;;
21661;SDS011;10992;48.170;8.596;2023-07-31T02:51:47;3.85;;;2.05;;
21661;SDS011;10992;48.170;8.596;2023-07-31T02:54:14;4.10;;;2.38;;
21661;SDS011;10992;48.170;8.596;2023-07-31T02:56:41;3.65;;;2.10;;
21661;SDS011;10992;48.170;8.596;2023-07-31T02:59:08;4.68;;;2.10;;
21661;SDS011;10992;48.170;8.596;2023-07-31T03:01:35;3.50;;;1.90;;
21661;SDS011;10992;48.170;8.596;2023-07-31T03:04:02;3.95;;;1.98;;
21661;SDS011;10992;48.170;8.596;2023-07-31T03:06:29;5.15;;;2.20;;
21661;SDS011;10992;48.170;8.596;2023-07-31T03:08:56;2.30;;;1.90;;
21661;SDS011;10992;48.170;8.596;2023-07-31T03:11:23;3.50;;;2.17;;
21661;SDS011;10992;48.170;8.596;2023-07-31T03:13:50;5.10;;;2.38;;
21661;SDS011;10992;48.170;8.596;2023-07-31T03:16:17;5.05;;;2.13;;
21661;SDS011;10992;48.170;8.596;2023-07-31T03:18:44;5.88;;;2.50;;
21661;SDS011;10992;48.170;8.596;2023-07-31T03:21:12;4.45;;;2.20;;
21661;SDS011;10992;48.170;8.596;2023-07-31T03:23:39;5.47;;;2.40;;
21661;SDS011;10992;48.170;8.596;2023-07-31T03:26:06;6.55;;;2.60;;
21661;SDS011;10992;48.170;8.596;2023-07-31T03:28:33;5.05;;;2.72;;
21661;SDS011;10992;48.170;8.596;2023-07-31T03:31:01;4.45;;;2.60;;
21661;SDS011;10992;48.170;8.596;2023-07-31T03:33:28;3.83;;;2.17;;
21661;SDS011;10992;48.170;8.596;2023-07-31T03:35:55;4.13;;;2.63;;
21661;SDS011;10992;48.170;8.596;2023-07-31T03:38:22;4.45;;;2.50;;
21661;SDS011;10992;48.170;8.596;2023-07-31T03:40:49;3.70;;;2.33;;
21661;SDS011;10992;48.170;8.596;2023-07-31T03:43:16;4.28;;;2.13;;
21661;SDS011;10992;48.170;8.596;2023-07-31T03:45:43;3.13;;;2.40;;
21661;SDS011;10992;48.170;8.596;2023-07-31T03:48:10;4.63;;;2.50;;
21661;SDS011;10992;48.170;8.596;2023-07-31T03:50:37;3.22;;;2.42;;
21661;SDS011;10992;48.170;8.596;2023-07-31T03:53:04;8.45;;;2.97;;
21661;SDS011;10992;48.170;8.596;2023-07-31T03:55:30;4.55;;;2.60;;
21661;SDS011;10992;48.170;8.596;2023-07-31T03:57:57;5.72;;;2.53;;
21661;SDS011;10992;48.170;8.596;2023-07-31T04:00:24;3.80;;;2.58;;
21661;SDS011;10992;48.170;8.596;2023-07-31T04:02:53;5.03;;;2.45;;
21661;SDS011;10992;48.170;8.596;2023-07-31T04:05:19;4.78;;;2.75;;
21661;SDS011;10992;48.170;8.596;2023-07-31T04:07:47;5.90;;;2.70;;
21661;SDS011;10992;48.170;8.596;2023-07-31T04:10:13;4.18;;;2.72;;
21661;SDS011;10992;48.170;8.596;2023-07-31T04:12:41;4.32;;;2.60;;
21661;SDS011;10992;48.170;8.596;2023-07-31T04:15:08;5.47;;;2.60;;
21661;SDS011;10992;48.170;8.596;2023-07-31T04:17:35;4.00;;;2.72;;
21661;SDS011;10992;48.170;8.596;2023-07-31T04:20:02;4.35;;;2.53;;
21661;SDS011;10992;48.170;8.596;2023-07-31T04:22:29;5.07;;;2.72;;
21661;SDS011;10992;48.170;8.596;2023-07-31T04:24:56;5.38;;;2.67;;
21661;SDS011;10992;48.170;8.596;2023-07-31T04:27:23;7.72;;;3.10;;
21661;SDS011;10992;48.170;8.596;2023-07-31T04:29:50;5.70;;;2.90;;
21661;SDS011;10992;48.170;8.596;2023-07-31T04:32:17;5.55;;;2.72;;
21661;SDS011;10992;48.170;8.596;2023-07-31T04:34:44;4.25;;;2.70;;
21661;SDS011;10992;48.170;8.596;2023-07-31T04:37:11;4.45;;;2.42;;
21661;SDS011;10992;48.170;8.596;2023-07-31T04:39:38;3.88;;;2.33;;
21661;SDS011;10992;48.170;8.596;2023-07-31T04:42:05;3.58;;;2.17;;
21661;SDS011;10992;48.170;8.596;2023-07-31T04:44:32;5.68;;;2.42;;
21661;SDS011;10992;48.170;8.596;2023-07-31T04:46:59;4.45;;;2.17;;
21661;SDS011;10992;48.170;8.596;2023-07-31T04:49:26;7.55;;;2.78;;
21661;SDS011;10992;48.170;8.596;2023-07-31T04:51:53;4.57;;;2.22;;
21661;SDS011;10992;48.170;8.596;2023-07-31T04:54:20;4.80;;;2.58;;
21661;SDS011;10992;48.170;8.596;2023-07-31T04:56:46;4.78;;;2.38;;
21661;SDS011;10992;48.170;8.596;2023-07-31T04:59:14;12.32;;;2.38;;
21661;SDS011;10992;48.170;8.596;2023-07-31T05:01:41;3.92;;;2.22;;
21661;SDS011;10992;48.170;8.596;2023-07-31T05:04:08;6.15;;;2.05;;
21661;SDS011;10992;48.170;8.596;2023-07-31T05:06:34;2.63;;;1.83;;
21661;SDS011;10992;48.170;8.596;2023-07-31T05:09:02;2.30;;;1.80;;
21661;SDS011;10992;48.170;8.596;2023-07-31T05:11:29;4.85;;;1.90;;
21661;SDS011;10992;48.170;8.596;2023-07-31T05:13:56;4.35;;;2.00;;
21661;SDS011;10992;48.170;8.596;2023-07-31T05:16:22;5.18;;;2.10;;
21661;SDS011;10992;48.170;8.596;2023-07-31T05:18:49;4.13;;;1.73;;
21661;SDS011;10992;48.170;8.596;2023-07-31T05:21:16;3.60;;;2.08;;
21661;SDS011;10992;48.170;8.596;2023-07-31T05:23:43;2.78;;;1.85;;
21661;SDS011;10992;48.170;8.596;2023-07-31T05:26:10;4.82;;;2.17;;
21661;SDS011;10992;48.170;8.596;2023-07-31T05:28:37;2.40;;;1.80;;
21661;SDS011;10992;48.170;8.596;2023-07-31T05:31:04;4.28;;;1.90;;
21661;SDS011;10992;48.170;8.596;2023-07-31T05:33:33;2.58;;;1.80;;
21661;SDS011;10992;48.170;8.596;2023-07-31T05:36:00;5.63;;;2.08;;
21661;SDS011;10992;48.170;8.596;2023-07-31T05:38:26;4.10;;;1.90;;
21661;SDS011;10992;48.170;8.596;2023-07-31T05:40:53;5.70;;;2.13;;
21661;SDS011;10992;48.170;8.596;2023-07-31T05:43:20;4.30;;;1.75;;
21661;SDS011;10992;48.170;8.596;2023-07-31T05:45:47;4.50;;;1.83;;
21661;SDS011;10992;48.170;8.596;2023-07-31T05:48:14;4.57;;;2.00;;
21661;SDS011;10992;48.170;8.596;2023-07-31T05:50:42;3.53;;;1.90;;
21661;SDS011;10992;48.170;8.596;2023-07-31T05:53:10;3.97;;;2.20;;
21661;SDS011;10992;48.170;8.596;2023-07-31T05:55:37;3.28;;;1.73;;
21661;SDS011;10992;48.170;8.596;2023-07-31T05:58:04;3.17;;;1.58;;
21661;SDS011;10992;48.170;8.596;2023-07-31T06:00:30;4.22;;;1.98;;
21661;SDS011;10992;48.170;8.596;2023-07-31T06:02:58;5.60;;;2.10;;
21661;SDS011;10992;48.170;8.596;2023-07-31T06:05:25;6.75;;;2.00;;
21661;SDS011;10992;48.170;8.596;2023-07-31T06:07:52;5.18;;;1.88;;
21661;SDS011;10992;48.170;8.596;2023-07-31T06:10:19;4.38;;;1.88;;
21661;SDS011;10992;48.170;8.596;2023-07-31T06:12:46;5.22;;;1.80;;
21661;SDS011;10992;48.170;8.596;2023-07-31T06:15:13;2.95;;;1.80;;
21661;SDS011;10992;48.170;8.596;2023-07-31T06:17:40;3.55;;;1.70;;
21661;SDS011;10992;48.170;8.596;2023-07-31T06:20:07;4.43;;;1.80;;
21661;SDS011;10992;48.170;8.596;2023-07-31T06:22:34;7.68;;;2.08;;
21661;SDS011;10992;48.170;8.596;2023-07-31T06:25:01;4.53;;;1.90;;
21661;SDS011;10992;48.170;8.596;2023-07-31T06:27:28;5.53;;;2.05;;
21661;SDS011;10992;48.170;8.596;2023-07-31T06:29:56;3.97;;;1.70;;
21661;SDS011;10992;48.170;8.596;2023-07-31T06:32:22;3.58;;;1.60;;
21661;SDS011;10992;48.170;8.596;2023-07-31T06:34:50;4.28;;;1.70;;
21661;SDS011;10992;48.170;8.596;2023-07-31T06:37:16;6.95;;;1.85;;
21661;SDS011;10992;48.170;8.596;2023-07-31T06:39:43;4.60;;;1.95;;
21661;SDS011;10992;48.170;8.596;2023-07-31T06:42:10;5.47;;;2.22;;
21661;SDS011;10992;48.170;8.596;2023-07-31T06:44:37;5.07;;;2.03;;
21661;SDS011;10992;48.170;8.596;2023-07-31T06:47:04;2.80;;;1.52;;
21661;SDS011;10992;48.170;8.596;2023-07-31T06:49:31;4.22;;;2.00;;
21661;SDS011;10992;48.170;8.596;2023-07-31T06:51:58;4.00;;;1.70;;
21661;SDS011;10992;48.170;8.596;2023-07-31T06:54:25;3.50;;;1.50;;
21661;SDS011;10992;48.170;8.596;2023-07-31T06:56:52;2.13;;;1.27;;
21661;SDS011;10992;48.170;8.596;2023-07-31T06:59:19;4.05;;;1.27;;
21661;SDS011;10992;48.170;8.596;2023-07-31T07:01:46;3.97;;;1.52;;
21661;SDS011;10992;48.170;8.596;2023-07-31T07:04:13;3.03;;;1.40;;
21661;SDS011;10992;48.170;8.596;2023-07-31T07:06:40;5.93;;;1.58;;
21661;SDS011;10992;48.170;8.596;2023-07-31T07:09:08;4.45;;;1.80;;
21661;SDS011;10992;48.170;8.596;2023-07-31T07:11:34;4.50;;;1.77;;
21661;SDS011;10992;48.170;8.596;2023-07-31T07:14:03;3.10;;;1.45;;
21661;SDS011;10992;48.170;8.596;2023-07-31T07:16:30;2.58;;;1.30;;
21661;SDS011;10992;48.170;8.596;2023-07-31T07:18:57;6.25;;;1.98;;
21661;SDS011;10992;48.170;8.596;2023-07-31T07:21:30;3.83;;;1.48;;
21661;SDS011;10992;48.170;8.596;2023-07-31T07:23:57;7.43;;;2.08;;
21661;SDS011;10992;48.170;8.596;2023-07-31T07:26:24;4.70;;;2.00;;
21661;SDS011;10992;48.170;8.596;2023-07-31T07:28:51;3.75;;;1.50;;
21661;SDS011;10992;48.170;8.596;2023-07-31T07:31:18;2.67;;;1.58;;
21661;SDS011;10992;48.170;8.596;2023-07-31T07:33:45;3.15;;;1.40;;
21661;SDS011;10992;48.170;8.596;2023-07-31T07:36:11;3.70;;;2.10;;
21661;SDS011;10992;48.170;8.596;2023-07-31T07:38:39;2.58;;;1.42;;
21661;SDS011;10992;48.170;8.596;2023-07-31T07:41:07;5.18;;;1.80;;
21661;SDS011;10992;48.170;8.596;2023-07-31T07:43:34;5.00;;;1.85;;
21661;SDS011;10992;48.170;8.596;2023-07-31T07:46:01;3.78;;;1.20;;
21661;SDS011;10992;48.170;8.596;2023-07-31T07:48:29;4.47;;;1.98;;
21661;SDS011;10992;48.170;8.596;2023-07-31T07:50:55;5.40;;;1.52;;
21661;SDS011;10992;48.170;8.596;2023-07-31T07:53:22;5.78;;;1.92;;
21661;SDS011;10992;48.170;8.596;2023-07-31T07:55:49;3.78;;;1.55;;
21661;SDS011;10992;48.170;8.596;2023-07-31T07:58:16;2.95;;;1.50;;
21661;SDS011;10992;48.170;8.596;2023-07-31T08:00:48;4.32;;;1.38;;
21661;SDS011;10992;48.170;8.596;2023-07-31T08:03:16;3.75;;;1.40;;
21661;SDS011;10992;48.170;8.596;2023-07-31T08:05:43;4.57;;;1.50;;
21661;SDS011;10992;48.170;8.596;2023-07-31T08:08:14;3.53;;;1.30;;
21661;SDS011;10992;48.170;8.596;2023-07-31T08:10:42;3.40;;;1.35;;
21661;SDS011;10992;48.170;8.596;2023-07-31T08:13:12;3.15;;;1.08;;
21661;SDS011;10992;48.170;8.596;2023-07-31T08:15:42;5.00;;;1.85;;
21661;SDS011;10992;48.170;8.596;2023-07-31T08:18:09;4.28;;;1.30;;
21661;SDS011;10992;48.170;8.596;2023-07-31T08:20:38;5.60;;;1.50;;
21661;SDS011;10992;48.170;8.596;2023-07-31T08:23:05;3.53;;;1.55;;
21661;SDS011;10992;48.170;8.596;2023-07-31T08:25:34;3.55;;;1.48;;
21661;SDS011;10992;48.170;8.596;2023-07-31T08:28:01;3.80;;;1.55;;
21661;SDS011;10992;48.170;8.596;2023-07-31T08:30:29;4.15;;;1.40;;
21661;SDS011;10992;48.170;8.596;2023-07-31T08:32:56;4.82;;;1.52;;
21661;SDS011;10992;48.170;8.596;2023-07-31T08:35:24;5.00;;;1.67;;
21661;SDS011;10992;48.170;8.596;2023-07-31T08:37:52;3.28;;;1.10;;
21661;SDS011;10992;48.170;8.596;2023-07-31T08:40:19;4.95;;;1.42;;
21661;SDS011;10992;48.170;8.596;2023-07-31T08:42:46;4.18;;;1.38;;
21661;SDS011;10992;48.170;8.596;2023-07-31T08:45:14;3.28;;;1.60;;
21661;SDS011;10992;48.170;8.596;2023-07-31T08:47:46;3.55;;;1.30;;
21661;SDS011;10992;48.170;8.596;2023-07-31T08:50:15;3.00;;;1.30;;
21661;SDS011;10992;48.170;8.596;2023-07-31T08:52:43;4.57;;;1.90;;
21661;SDS011;10992;48.170;8.596;2023-07-31T08:55:12;2.97;;;1.40;;
21661;SDS011;10992;48.170;8.596;2023-07-31T08:57:39;2.83;;;1.40;;
21661;SDS011;10992;48.170;8.596;2023-07-31T09:00:08;4.82;;;1.30;;
21661;SDS011;10992;48.170;8.596;2023-07-31T09:05:13;4.10;;;1.52;;
21661;SDS011;10992;48.170;8.596;2023-07-31T09:07:41;3.70;;;2.42;;
21661;SDS011;10992;48.170;8.596;2023-07-31T09:10:12;4.50;;;1.70;;
21661;SDS011;10992;48.170;8.596;2023-07-31T09:12:39;3.83;;;1.65;;
21661;SDS011;10992;48.170;8.596;2023-07-31T09:15:06;6.88;;;1.70;;
21661;SDS011;10992;48.170;8.596;2023-07-31T09:17:46;3.70;;;1.70;;
21661;SDS011;10992;48.170;8.596;2023-07-31T09:20:14;4.35;;;1.80;;
21661;SDS011;10992;48.170;8.596;2023-07-31T09:22:42;4.13;;;1.77;;
21661;SDS011;10992;48.170;8.596;2023-07-31T09:30:18;3.65;;;1.40;;
21661;SDS011;10992;48.170;8.596;2023-07-31T09:32:47;3.33;;;1.55;;
21661;SDS011;10992;48.170;8.596;2023-07-31T09:35:21;3.03;;;1.13;;
21661;SDS011;10992;48.170;8.596;2023-07-31T09:37:55;4.93;;;1.92;;
21661;SDS011;10992;48.170;8.596;2023-07-31T09:40:33;5.15;;;1.65;;
21661;SDS011;10992;48.170;8.596;2023-07-31T09:43:03;4.05;;;1.48;;
21661;SDS011;10992;48.170;8.596;2023-07-31T09:45:33;3.95;;;1.58;;
21661;SDS011;10992;48.170;8.596;2023-07-31T09:48:08;3.20;;;1.75;;
21661;SDS011;10992;48.170;8.596;2023-07-31T09:50:37;4.28;;;1.77;;
21661;SDS011;10992;48.170;8.596;2023-07-31T09:53:06;3.25;;;1.55;;
21661;SDS011;10992;48.170;8.596;2023-07-31T09:55:34;3.70;;;1.50;;
21661;SDS011;10992;48.170;8.596;2023-07-31T09:58:03;4.57;;;1.70;;
21661;SDS011;10992;48.170;8.596;2023-07-31T10:00:34;2.83;;;1.75;;
21661;SDS011;10992;48.170;8.596;2023-07-31T10:03:05;4.88;;;1.73;;
21661;SDS011;10992;48.170;8.596;2023-07-31T10:05:35;2.97;;;1.55;;
21661;SDS011;10992;48.170;8.596;2023-07-31T10:08:21;3.55;;;1.30;;
21661;SDS011;10992;48.170;8.596;2023-07-31T10:10:57;3.58;;;1.50;;
21661;SDS011;10992;48.170;8.596;2023-07-31T10:13:25;4.30;;;1.40;;
21661;SDS011;10992;48.170;8.596;2023-07-31T10:15:54;3.15;;;1.55;;
21661;SDS011;10992;48.170;8.596;2023-07-31T10:18:27;6.43;;;1.63;;
21661;SDS011;10992;48.170;8.596;2023-07-31T10:20:54;4.07;;;1.42;;
21661;SDS011;10992;48.170;8.596;2023-07-31T10:23:22;4.07;;;1.45;;
21661;SDS011;10992;48.170;8.596;2023-07-31T10:25:51;4.28;;;1.80;;
21661;SDS011;10992;48.170;8.596;2023-07-31T10:28:20;3.03;;;1.10;;
21661;SDS011;10992;48.170;8.596;2023-07-31T10:30:47;3.55;;;1.45;;
21661;SDS011;10992;48.170;8.596;2023-07-31T10:33:17;3.55;;;1.52;;
21661;SDS011;10992;48.170;8.596;2023-07-31T10:35:49;3.22;;;1.27;;
21661;SDS011;10992;48.170;8.596;2023-07-31T10:38:19;1.80;;;1.15;;
21661;SDS011;10992;48.170;8.596;2023-07-31T10:40:46;2.80;;;1.02;;
21661;SDS011;10992;48.170;8.596;2023-07-31T10:43:24;2.28;;;1.25;;
21661;SDS011;10992;48.170;8.596;2023-07-31T10:46:00;2.40;;;1.40;;
21661;SDS011;10992;48.170;8.596;2023-07-31T10:48:35;3.03;;;1.35;;
21661;SDS011;10992;48.170;8.596;2023-07-31T10:51:08;3.83;;;1.60;;
21661;SDS011;10992;48.170;8.596;2023-07-31T10:53:47;3.63;;;1.35;;
21661;SDS011;10992;48.170;8.596;2023-07-31T10:56:19;3.22;;;1.30;;
21661;SDS011;10992;48.170;8.596;2023-07-31T10:59:05;2.67;;;1.27;;
21661;SDS011;10992;48.170;8.596;2023-07-31T11:01:51;1.73;;;1.23;;
21661;SDS011;10992;48.170;8.596;2023-07-31T11:04:29;5.45;;;1.42;;
21661;SDS011;10992;48.170;8.596;2023-07-31T11:07:00;3.35;;;1.83;;
21661;SDS011;10992;48.170;8.596;2023-07-31T11:09:34;3.33;;;1.42;;
21661;SDS011;10992;48.170;8.596;2023-07-31T11:12:02;5.20;;;1.45;;
21661;SDS011;10992;48.170;8.596;2023-07-31T11:14:29;2.83;;;1.83;;
21661;SDS011;10992;48.170;8.596;2023-07-31T11:16:56;3.33;;;1.55;;
21661;SDS011;10992;48.170;8.596;2023-07-31T11:19:26;4.45;;;1.98;;
21661;SDS011;10992;48.170;8.596;2023-07-31T11:21:52;3.85;;;1.60;;
21661;SDS011;10992;48.170;8.596;2023-07-31T11:24:20;2.67;;;1.60;;
21661;SDS011;10992;48.170;8.596;2023-07-31T11:26:53;5.30;;;1.67;;
21661;SDS011;10992;48.170;8.596;2023-07-31T11:29:20;4.20;;;1.75;;
21661;SDS011;10992;48.170;8.596;2023-07-31T11:31:53;4.72;;;1.85;;
21661;SDS011;10992;48.170;8.596;2023-07-31T11:34:20;3.38;;;1.65;;
21661;SDS011;10992;48.170;8.596;2023-07-31T11:36:54;2.72;;;1.73;;
21661;SDS011;10992;48.170;8.596;2023-07-31T11:39:21;3.67;;;1.80;;
21661;SDS011;10992;48.170;8.596;2023-07-31T11:41:48;3.40;;;1.73;;
21661;SDS011;10992;48.170;8.596;2023-07-31T11:44:15;2.17;;;1.40;;
21661;SDS011;10992;48.170;8.596;2023-07-31T11:46:56;3.90;;;1.65;;
21661;SDS011;10992;48.170;8.596;2023-07-31T11:49:23;5.20;;;1.92;;
21661;SDS011;10992;48.170;8.596;2023-07-31T11:51:50;5.97;;;2.22;;
21661;SDS011;10992;48.170;8.596;2023-07-31T11:54:17;3.25;;;1.88;;
21661;SDS011;10992;48.170;8.596;2023-07-31T11:56:44;5.35;;;2.00;;
21661;SDS011;10992;48.170;8.596;2023-07-31T11:59:11;4.22;;;2.03;;
21661;SDS011;10992;48.170;8.596;2023-07-31T12:01:39;4.25;;;1.92;;
21661;SDS011;10992;48.170;8.596;2023-07-31T12:04:06;2.97;;;1.83;;
21661;SDS011;10992;48.170;8.596;2023-07-31T12:06:34;4.03;;;2.10;;
21661;SDS011;10992;48.170;8.596;2023-07-31T12:09:02;3.35;;;1.80;;
21661;SDS011;10992;48.170;8.596;2023-07-31T12:11:30;3.08;;;1.98;;
21661;SDS011;10992;48.170;8.596;2023-07-31T12:13:57;3.70;;;2.03;;
21661;SDS011;10992;48.170;8.596;2023-07-31T12:16:26;4.32;;;2.40;;
21661;SDS011;10992;48.170;8.596;2023-07-31T12:18:53;3.40;;;2.20;;
21661;SDS011;10992;48.170;8.596;2023-07-31T12:21:20;2.53;;;1.98;;
21661;SDS011;10992;48.170;8.596;2023-07-31T12:23:47;2.75;;;1.73;;
21661;SDS011;10992;48.170;8.596;2023-07-31T12:26:15;3.65;;;2.00;;
21661;SDS011;10992;48.170;8.596;2023-07-31T12:28:46;4.30;;;2.30;;
21661;SDS011;10992;48.170;8.596;2023-07-31T12:31:15;4.40;;;2.10;;
21661;SDS011;10992;48.170;8.596;2023-07-31T12:33:44;3.70;;;2.22;;
21661;SDS011;10992;48.170;8.596;2023-07-31T12:36:13;4.53;;;1.90;;
21661;SDS011;10992;48.170;8.596;2023-07-31T12:38:41;3.70;;;2.25;;
21661;SDS011;10992;48.170;8.596;2023-07-31T12:41:09;6.03;;;1.90;;
21661;SDS011;10992;48.170;8.596;2023-07-31T12:43:37;7.63;;;2.38;;
21661;SDS011;10992;48.170;8.596;2023-07-31T12:46:05;3.22;;;2.17;;
21661;SDS011;10992;48.170;8.596;2023-07-31T12:48:35;4.35;;;2.10;;
21661;SDS011;10992;48.170;8.596;2023-07-31T12:51:02;6.13;;;2.40;;
21661;SDS011;10992;48.170;8.596;2023-07-31T12:53:29;5.38;;;2.28;;
21661;SDS011;10992;48.170;8.596;2023-07-31T12:55:56;4.07;;;2.42;;
21661;SDS011;10992;48.170;8.596;2023-07-31T12:58:23;3.03;;;1.92;;
21661;SDS011;10992;48.170;8.596;2023-07-31T13:00:51;7.18;;;2.40;;
21661;SDS011;10992;48.170;8.596;2023-07-31T13:03:18;3.88;;;2.20;;
21661;SDS011;10992;48.170;8.596;2023-07-31T13:05:44;8.25;;;2.88;;
21661;SDS011;10992;48.170;8.596;2023-07-31T13:08:11;7.43;;;2.58;;
21661;SDS011;10992;48.170;8.596;2023-07-31T13:10:38;5.07;;;2.25;;
21661;SDS011;10992;48.170;8.596;2023-07-31T13:13:05;3.47;;;2.42;;
21661;SDS011;10992;48.170;8.596;2023-07-31T13:15:32;5.22;;;2.03;;
21661;SDS011;10992;48.170;8.596;2023-07-31T13:17:59;3.88;;;2.35;;
21661;SDS011;10992;48.170;8.596;2023-07-31T13:20:27;4.32;;;2.40;;
21661;SDS011;10992;48.170;8.596;2023-07-31T13:22:54;3.97;;;2.50;;
21661;SDS011;10992;48.170;8.596;2023-07-31T13:25:21;4.70;;;2.67;;
21661;SDS011;10992;48.170;8.596;2023-07-31T13:27:48;3.85;;;2.25;;
21661;SDS011;10992;48.170;8.596;2023-07-31T13:30:14;3.60;;;2.42;;
21661;SDS011;10992;48.170;8.596;2023-07-31T13:32:41;4.00;;;2.35;;
21661;SDS011;10992;48.170;8.596;2023-07-31T13:35:08;3.58;;;2.38;;
21661;SDS011;10992;48.170;8.596;2023-07-31T13:37:37;4.28;;;2.50;;
21661;SDS011;10992;48.170;8.596;2023-07-31T13:40:04;5.60;;;2.25;;
21661;SDS011;10992;48.170;8.596;2023-07-31T13:42:32;2.78;;;2.22;;
21661;SDS011;10992;48.170;8.596;2023-07-31T13:44:59;4.57;;;2.55;;
21661;SDS011;10992;48.170;8.596;2023-07-31T13:47:29;4.03;;;2.50;;
21661;SDS011;10992;48.170;8.596;2023-07-31T13:49:58;4.72;;;2.60;;
21661;SDS011;10992;48.170;8.596;2023-07-31T13:52:25;4.13;;;2.30;;
21661;SDS011;10992;48.170;8.596;2023-07-31T13:54:52;5.00;;;2.30;;
21661;SDS011;10992;48.170;8.596;2023-07-31T13:57:18;2.63;;;1.80;;
21661;SDS011;10992;48.170;8.596;2023-07-31T13:59:45;4.88;;;2.03;;
21661;SDS011;10992;48.170;8.596;2023-07-31T14:02:12;3.65;;;2.30;;
21661;SDS011;10992;48.170;8.596;2023-07-31T14:04:40;4.35;;;2.25;;
21661;SDS011;10992;48.170;8.596;2023-07-31T14:07:07;6.43;;;2.45;;
21661;SDS011;10992;48.170;8.596;2023-07-31T14:09:34;3.72;;;2.30;;
21661;SDS011;10992;48.170;8.596;2023-07-31T14:12:01;3.78;;;2.13;;
21661;SDS011;10992;48.170;8.596;2023-07-31T14:14:28;4.10;;;2.20;;
21661;SDS011;10992;48.170;8.596;2023-07-31T14:16:55;6.05;;;2.10;;
21661;SDS011;10992;48.170;8.596;2023-07-31T14:19:22;4.18;;;2.13;;
21661;SDS011;10992;48.170;8.596;2023-07-31T14:21:51;5.53;;;2.30;;
21661;SDS011;10992;48.170;8.596;2023-07-31T14:24:34;5.00;;;2.53;;
21661;SDS011;10992;48.170;8.596;2023-07-31T14:27:01;5.32;;;2.30;;
21661;SDS011;10992;48.170;8.596;2023-07-31T14:29:29;6.95;;;2.22;;
21661;SDS011;10992;48.170;8.596;2023-07-31T14:31:56;3.42;;;2.33;;
21661;SDS011;10992;48.170;8.596;2023-07-31T14:34:23;3.38;;;2.15;;
21661;SDS011;10992;48.170;8.596;2023-07-31T14:36:50;4.28;;;2.35;;
21661;SDS011;10992;48.170;8.596;2023-07-31T14:39:17;3.38;;;2.45;;
21661;SDS011;10992;48.170;8.596;2023-07-31T14:41:44;4.93;;;2.45;;
21661;SDS011;10992;48.170;8.596;2023-07-31T14:44:11;4.30;;;2.55;;
21661;SDS011;10992;48.170;8.596;2023-07-31T14:46:38;3.08;;;2.15;;
21661;SDS011;10992;48.170;8.596;2023-07-31T14:49:05;3.53;;;2.35;;
21661;SDS011;10992;48.170;8.596;2023-07-31T14:51:32;4.97;;;2.65;;
21661;SDS011;10992;48.170;8.596;2023-07-31T14:53:59;5.32;;;2.65;;
21661;SDS011;10992;48.170;8.596;2023-07-31T14:56:25;4.90;;;2.60;;
21661;SDS011;10992;48.170;8.596;2023-07-31T14:58:54;4.10;;;2.58;;
21661;SDS011;10992;48.170;8.596;2023-07-31T15:01:21;5.32;;;2.30;;
21661;SDS011;10992;48.170;8.596;2023-07-31T15:03:48;3.00;;;2.10;;
21661;SDS011;10992;48.170;8.596;2023-07-31T15:06:15;4.75;;;2.13;;